Terminal Aerodrome Forecast
Issued by NWS Topeka, KS

Home | Current Version | Previous Version | Text Only | Print | Product List | Glossary On
Versions: 1 2 3 4 5 6 7 8 9 10 11 12 13 14
467
FTUS43 KTOP 231739 CCA
TAFTOP
TAF COR
KTOP 231739Z 2318/2418 19010KT P6SM FEW250
     FM240500 17008KT P6SM FEW250 WS015/20040KT
     FM241200 20007KT P6SM SCT150
     FM241500 27008KT P6SM SCT100=

USA.gov is the U.S. government's official web portal to all federal, state and local government web resources and services.